createdAt,value
2018-09-12T00:01:34.702Z,81.80
2018-09-12T00:04:03.277Z,81.36
2018-09-12T00:06:32.472Z,81.94
2018-09-12T00:09:01.013Z,83.34
2018-09-12T00:11:29.510Z,83.08
2018-09-12T00:13:58.672Z,82.04
2018-09-12T00:16:27.274Z,81.60
2018-09-12T00:18:55.812Z,81.53
2018-09-12T00:21:24.310Z,81.07
2018-09-12T00:23:52.903Z,81.87
2018-09-12T00:26:21.454Z,82.54
2018-09-12T00:28:50.035Z,81.70
2018-09-12T00:31:18.680Z,82.29
2018-09-12T00:33:47.219Z,82.18
2018-09-12T00:36:16.641Z,81.58
2018-09-12T00:38:45.169Z,82.28
2018-09-12T00:41:13.801Z,81.91
2018-09-12T00:43:42.376Z,81.63
2018-09-12T00:46:11.415Z,81.99
2018-09-12T00:48:39.973Z,82.47
2018-09-12T00:51:09.137Z,82.59
2018-09-12T00:53:38.359Z,82.73
2018-09-12T00:56:07.040Z,82.90
2018-09-12T00:58:36.125Z,82.79
2018-09-12T01:01:04.686Z,82.64
2018-09-12T01:03:33.228Z,82.46
2018-09-12T01:06:01.748Z,82.51
2018-09-12T01:08:30.336Z,82.11
2018-09-12T01:10:58.933Z,82.13
2018-09-12T01:13:27.456Z,83.01
2018-09-12T01:15:55.940Z,83.41
2018-09-12T01:18:24.507Z,83.62
2018-09-12T01:20:53.152Z,82.54
2018-09-12T01:23:22.133Z,82.36
2018-09-12T01:25:50.673Z,82.61
2018-09-12T01:28:19.148Z,82.16
2018-09-12T01:30:47.738Z,82.16
2018-09-12T01:33:16.295Z,83.21
2018-09-12T01:35:44.926Z,83.98
2018-09-12T01:38:13.502Z,83.27
2018-09-12T01:40:42.093Z,82.96
2018-09-12T01:43:10.684Z,82.32
2018-09-12T01:45:40.975Z,81.54
2018-09-12T01:48:09.744Z,82.76
2018-09-12T01:50:38.359Z,83.57
2018-09-12T01:53:06.993Z,83.47
2018-09-12T01:55:35.592Z,83.10
2018-09-12T01:58:04.373Z,82.84
2018-09-12T02:00:38.182Z,82.58
2018-09-12T02:03:06.992Z,82.75
2018-09-12T02:05:36.042Z,82.68
2018-09-12T02:08:04.540Z,82.32
2018-09-12T02:10:33.131Z,82.01
2018-09-12T02:13:01.681Z,82.78
2018-09-12T02:15:30.621Z,84.58
2018-09-12T02:17:59.246Z,84.40
2018-09-12T02:20:27.839Z,84.91
2018-09-12T02:22:56.882Z,84.25
2018-09-12T02:25:26.609Z,83.69
2018-09-12T02:27:55.122Z,83.54
2018-09-12T02:30:23.824Z,82.96
2018-09-12T02:32:52.336Z,82.96
2018-09-12T02:35:21.922Z,83.34
2018-09-12T02:37:50.465Z,83.45
2018-09-12T02:40:19.027Z,83.15
2018-09-12T02:42:47.554Z,82.64
2018-09-12T02:45:16.112Z,82.78
2018-09-12T02:47:44.699Z,82.60
2018-09-12T02:50:13.980Z,82.82
2018-09-12T02:52:42.743Z,82.99
2018-09-12T02:55:13.015Z,83.39
2018-09-12T02:57:41.658Z,83.91
2018-09-12T03:00:10.660Z,84.22
2018-09-12T03:02:39.187Z,84.79
2018-09-12T03:05:07.740Z,84.58
2018-09-12T03:07:36.260Z,83.94
2018-09-12T03:10:05.031Z,83.28
2018-09-12T03:12:33.520Z,83.55
2018-09-12T03:15:02.133Z,83.61
2018-09-12T03:17:30.634Z,82.70
2018-09-12T03:19:59.249Z,83.49
2018-09-12T03:22:27.796Z,83.05
2018-09-12T03:24:56.397Z,84.21
2018-09-12T03:27:25.636Z,83.76
2018-09-12T03:29:54.220Z,83.70
2018-09-12T03:32:23.465Z,82.88
2018-09-12T03:34:52.124Z,82.77
2018-09-12T03:37:21.364Z,82.97
2018-09-12T03:39:49.965Z,83.44
2018-09-12T03:42:18.556Z,84.02
2018-09-12T03:44:47.136Z,84.16
2018-09-12T03:47:15.657Z,83.77
2018-09-12T03:49:44.977Z,82.89
2018-09-12T03:52:13.472Z,83.09
2018-09-12T03:54:41.988Z,83.11
2018-09-12T03:57:11.741Z,83.93
2018-09-12T03:59:40.369Z,83.90
2018-09-12T04:02:08.984Z,83.76
2018-09-12T04:04:37.615Z,83.63
2018-09-12T04:07:06.836Z,83.04
2018-09-12T04:09:35.368Z,83.54
2018-09-12T04:12:04.674Z,82.99
2018-09-12T04:14:33.278Z,83.35
2018-09-12T04:17:02.868Z,84.93
2018-09-12T04:19:31.396Z,84.65
2018-09-12T04:21:59.919Z,85.35
2018-09-12T04:24:28.994Z,84.99
2018-09-12T04:26:58.932Z,84.58
2018-09-12T04:29:28.053Z,84.38
2018-09-12T04:31:56.589Z,83.93
2018-09-12T04:34:25.753Z,83.69
2018-09-12T04:36:54.332Z,83.66
2018-09-12T04:39:22.968Z,84.22
2018-09-12T04:41:51.562Z,83.72
2018-09-12T04:44:20.794Z,84.98
2018-09-12T04:46:49.513Z,84.36
2018-09-12T04:49:18.176Z,83.25
2018-09-12T04:51:47.983Z,83.62
2018-09-12T04:54:16.520Z,83.44
2018-09-12T04:56:45.171Z,84.07
2018-09-12T04:59:13.693Z,83.50
2018-09-12T05:01:43.484Z,83.98
2018-09-12T05:04:12.073Z,84.06
2018-09-12T05:06:40.721Z,83.98
2018-09-12T05:09:10.754Z,83.50
2018-09-12T05:11:39.400Z,83.54
2018-09-12T05:14:08.067Z,83.72
2018-09-12T05:16:36.594Z,82.94
2018-09-12T05:19:06.031Z,83.78
2018-09-12T05:25:06.224Z,83.07
2018-09-12T05:27:35.953Z,84.69
2018-09-12T05:30:04.793Z,84.56
2018-09-12T05:32:33.982Z,84.12
2018-09-12T05:35:03.285Z,82.52
2018-09-12T05:37:32.455Z,83.94
2018-09-12T05:40:01.278Z,84.00
2018-09-12T05:42:29.883Z,83.66
2018-09-12T05:44:58.452Z,82.29
2018-09-12T05:47:27.020Z,81.72
2018-09-12T05:49:55.784Z,82.06
2018-09-12T05:52:24.382Z,79.34
2018-09-12T05:54:52.976Z,81.54
2018-09-12T05:57:22.028Z,80.18
2018-09-12T05:59:50.609Z,81.50
2018-09-12T06:02:19.966Z,82.15
2018-09-12T06:04:48.621Z,81.37
2018-09-12T06:07:17.758Z,80.45
2018-09-12T06:09:47.469Z,79.53
2018-09-12T06:12:16.110Z,78.74
2018-09-12T06:14:44.624Z,81.06
2018-09-12T06:17:13.298Z,78.94
2018-09-12T06:19:43.892Z,79.44
2018-09-12T06:22:13.292Z,77.12
2018-09-12T06:24:41.886Z,76.46
2018-09-12T06:27:10.995Z,77.83
2018-09-12T06:29:40.788Z,76.09
2018-09-12T06:32:09.886Z,76.89
2018-09-12T06:34:38.439Z,77.26
2018-09-12T06:37:07.869Z,75.98
2018-09-12T06:39:36.403Z,74.86
2018-09-12T06:42:05.027Z,74.38
2018-09-12T06:44:33.564Z,70.69
2018-09-12T06:47:02.134Z,71.43
2018-09-12T06:49:30.635Z,68.53
2018-09-12T06:51:59.169Z,66.44
2018-09-12T06:54:27.703Z,65.11
2018-09-12T06:56:56.654Z,61.57
2018-09-12T06:59:25.249Z,59.46
2018-09-12T07:01:53.798Z,59.43
2018-09-12T07:04:22.522Z,56.25
2018-09-12T07:06:52.114Z,58.28
2018-09-12T07:09:20.751Z,55.04
2018-09-12T07:11:49.363Z,56.12
2018-09-12T07:14:18.021Z,56.08
2018-09-12T07:16:46.525Z,54.61
2018-09-12T07:19:15.803Z,55.25
2018-09-12T07:21:44.374Z,53.18
2018-09-12T07:24:12.927Z,54.42
2018-09-12T07:26:42.422Z,52.38
2018-09-12T07:29:10.980Z,52.65
2018-09-12T07:31:39.532Z,50.71
2018-09-12T07:34:08.393Z,52.06
2018-09-12T07:36:36.881Z,53.09
2018-09-12T07:39:08.635Z,49.99
2018-09-12T07:41:37.213Z,49.75
2018-09-12T07:44:05.852Z,49.83
2018-09-12T07:46:35.397Z,50.55
2018-09-12T07:49:04.059Z,50.97
2018-09-12T07:51:32.580Z,49.06
2018-09-12T07:54:02.899Z,49.07
2018-09-12T07:56:31.671Z,48.45
2018-09-12T07:59:00.144Z,46.35
2018-09-12T08:01:28.685Z,48.09
2018-09-12T08:03:57.244Z,47.55
2018-09-12T08:06:25.760Z,47.12
2018-09-12T08:08:54.267Z,45.94
2018-09-12T08:11:22.756Z,45.92
2018-09-12T08:13:51.679Z,45.11
2018-09-12T08:16:20.202Z,45.20
2018-09-12T08:18:49.426Z,44.84
2018-09-12T08:21:18.465Z,44.20
2018-09-12T08:23:47.921Z,43.41
2018-09-12T08:26:16.500Z,42.57
2018-09-12T08:28:45.115Z,41.99
2018-09-12T08:31:13.697Z,42.71
2018-09-12T08:33:42.175Z,43.19
2018-09-12T08:36:11.204Z,41.36
2018-09-12T08:38:39.860Z,41.48
2018-09-12T08:41:08.316Z,41.34
2018-09-12T08:43:36.730Z,40.52
2018-09-12T08:46:05.311Z,42.60
2018-09-12T08:48:33.761Z,41.33
2018-09-12T08:51:02.520Z,38.69
2018-09-12T08:53:30.959Z,40.60
2018-09-12T08:56:00.288Z,40.68
2018-09-12T08:58:28.725Z,40.50
2018-09-12T09:00:57.126Z,41.30
2018-09-12T09:03:25.568Z,39.04
2018-09-12T09:05:54.670Z,38.15
2018-09-12T09:08:23.193Z,41.93
2018-09-12T09:10:52.075Z,40.99
2018-09-12T09:13:20.772Z,41.75
2018-09-12T09:15:49.384Z,39.08
2018-09-12T09:18:17.940Z,39.53
2018-09-12T09:20:46.490Z,37.42
2018-09-12T09:23:15.050Z,40.06
2018-09-12T09:25:43.820Z,38.17
2018-09-12T09:28:12.306Z,37.90
2018-09-12T09:30:40.935Z,38.28
2018-09-12T09:33:09.832Z,37.68
2018-09-12T09:35:38.542Z,37.54
2018-09-12T09:38:07.338Z,36.94
2018-09-12T09:40:35.914Z,37.71
2018-09-12T09:43:04.515Z,37.17
2018-09-12T09:45:33.112Z,35.86
2018-09-12T09:48:01.752Z,36.56
2018-09-12T09:51:32.911Z,37.09
2018-09-12T09:54:01.597Z,35.39
2018-09-12T09:56:30.162Z,35.11
2018-09-12T09:58:58.720Z,34.78
2018-09-12T10:01:32.444Z,33.21
2018-09-12T10:04:06.212Z,36.60
2018-09-12T10:06:40.745Z,34.29
2018-09-12T10:09:14.899Z,35.02
2018-09-12T10:11:43.707Z,33.49
2018-09-12T10:14:12.135Z,32.92
2018-09-12T10:16:41.060Z,32.82
2018-09-12T10:19:10.128Z,32.26
2018-09-12T10:21:39.337Z,33.02
2018-09-12T10:24:07.952Z,34.06
2018-09-12T10:26:36.480Z,32.85
2018-09-12T10:29:05.042Z,32.75
2018-09-12T10:31:33.516Z,33.40
2018-09-12T10:34:02.017Z,32.39
2018-09-12T10:36:30.500Z,32.61
2018-09-12T10:38:59.003Z,30.78
2018-09-12T10:41:27.584Z,32.61
2018-09-12T10:43:56.120Z,34.30
2018-09-12T10:46:25.305Z,32.95
2018-09-12T10:48:54.304Z,33.81
2018-09-12T10:51:22.856Z,34.43
2018-09-12T10:53:51.340Z,34.01
2018-09-12T10:56:20.105Z,33.75
2018-09-12T10:58:49.527Z,33.79
2018-09-12T11:01:18.073Z,33.72
2018-09-12T11:03:47.467Z,34.13
2018-09-12T11:06:15.989Z,34.71
2018-09-12T11:08:44.595Z,33.11
2018-09-12T11:11:13.096Z,33.03
2018-09-12T11:13:41.605Z,32.89
2018-09-12T11:16:11.136Z,32.37
2018-09-12T11:18:39.600Z,32.86
2018-09-12T11:21:08.072Z,33.14
2018-09-12T11:23:36.607Z,32.63
2018-09-12T11:26:05.251Z,32.88
2018-09-12T11:28:33.765Z,31.73
2018-09-12T11:31:02.252Z,32.34
2018-09-12T11:33:30.736Z,31.59
2018-09-12T11:35:59.215Z,31.82
2018-09-12T11:38:27.728Z,32.46
2018-09-12T11:40:56.232Z,32.17
2018-09-12T11:43:24.733Z,30.08
2018-09-12T11:45:53.234Z,29.66
2018-09-12T11:48:21.723Z,29.83
2018-09-12T11:50:50.282Z,31.06
2018-09-12T11:53:18.759Z,30.35
2018-09-12T11:55:47.278Z,30.24
2018-09-12T11:58:15.853Z,30.01
2018-09-12T12:00:44.372Z,29.70
2018-09-12T12:03:13.460Z,29.14
2018-09-12T12:05:42.503Z,29.37
2018-09-12T12:08:11.040Z,29.03
2018-09-12T12:10:41.593Z,28.15
2018-09-12T12:13:10.108Z,29.43
2018-09-12T12:15:38.792Z,30.40
2018-09-12T12:18:07.266Z,30.36
2018-09-12T12:20:35.791Z,30.08
2018-09-12T12:23:04.359Z,29.85
2018-09-12T12:25:32.940Z,28.29
2018-09-12T12:28:01.394Z,30.00
2018-09-12T12:30:29.877Z,30.59
2018-09-12T12:32:58.492Z,30.72
2018-09-12T12:35:27.591Z,31.00
2018-09-12T12:37:56.086Z,29.49
2018-09-12T12:40:24.673Z,30.53
2018-09-12T12:42:53.687Z,30.21
2018-09-12T12:45:22.252Z,29.41
2018-09-12T12:47:50.701Z,30.05
2018-09-12T12:50:19.417Z,31.62
2018-09-12T12:52:47.937Z,31.51
2018-09-12T12:55:16.433Z,30.77
2018-09-12T12:57:44.900Z,29.14
2018-09-12T13:00:13.342Z,29.97
2018-09-12T13:02:42.455Z,30.80
2018-09-12T13:05:10.977Z,30.76
2018-09-12T13:07:39.576Z,30.96
2018-09-12T13:10:08.105Z,29.29
2018-09-12T13:12:36.581Z,30.54
2018-09-12T13:15:05.805Z,31.63
2018-09-12T13:17:34.365Z,31.44
2018-09-12T13:20:02.836Z,32.31
2018-09-12T13:22:31.368Z,30.79
2018-09-12T13:25:00.732Z,30.54
2018-09-12T13:27:29.805Z,29.61
2018-09-12T13:29:58.532Z,30.24
2018-09-12T13:32:27.288Z,30.08
2018-09-12T13:34:55.809Z,29.93
2018-09-12T13:37:24.328Z,30.33
2018-09-12T13:39:52.776Z,30.66
2018-09-12T13:42:21.382Z,29.75
2018-09-12T13:44:50.296Z,29.76
2018-09-12T13:47:19.507Z,30.74
2018-09-12T13:49:48.058Z,30.92
2018-09-12T13:52:16.504Z,30.87
2018-09-12T13:54:45.058Z,32.16
2018-09-12T13:57:13.709Z,31.57
2018-09-12T13:59:42.185Z,31.01
2018-09-12T14:02:10.720Z,31.93
2018-09-12T14:04:39.230Z,32.56
2018-09-12T14:07:07.781Z,32.08
2018-09-12T14:09:36.359Z,32.50
2018-09-12T14:12:05.401Z,32.92
2018-09-12T14:14:33.910Z,32.86
2018-09-12T14:17:02.491Z,33.16
2018-09-12T14:19:31.065Z,32.98
2018-09-12T14:21:59.545Z,33.45
2018-09-12T14:24:28.049Z,32.91
2018-09-12T14:26:56.605Z,33.71
2018-09-12T14:29:25.951Z,33.63
2018-09-12T14:31:54.507Z,33.38
2018-09-12T14:34:23.100Z,33.60
2018-09-12T14:36:51.769Z,34.02
2018-09-12T14:39:20.357Z,34.49
2018-09-12T14:41:49.601Z,34.22
2018-09-12T14:44:18.182Z,33.66
2018-09-12T14:46:46.720Z,34.65
2018-09-12T14:49:15.436Z,34.66
2018-09-12T14:51:43.984Z,35.70
2018-09-12T14:54:12.583Z,35.56
2018-09-12T14:56:41.479Z,35.62
2018-09-12T14:59:10.003Z,35.66
2018-09-12T15:01:38.602Z,35.20
2018-09-12T15:04:07.119Z,35.09
2018-09-12T15:06:36.367Z,34.85
2018-09-12T15:09:06.747Z,35.96
2018-09-12T15:11:35.249Z,35.80
2018-09-12T15:14:03.730Z,36.03
2018-09-12T15:16:32.254Z,36.03
2018-09-12T15:19:00.796Z,35.95
2018-09-12T15:21:29.954Z,36.43
2018-09-12T15:23:58.520Z,35.59
2018-09-12T15:26:27.799Z,36.24
2018-09-12T15:28:56.346Z,36.28
2018-09-12T15:31:25.364Z,36.26
2018-09-12T15:33:53.838Z,36.16
2018-09-12T15:36:22.384Z,36.58
2018-09-12T15:38:51.528Z,36.44
2018-09-12T15:41:20.038Z,36.36
2018-09-12T15:43:48.851Z,36.84
2018-09-12T15:46:17.396Z,36.68
2018-09-12T15:48:47.328Z,36.69
2018-09-12T15:51:15.785Z,36.54
2018-09-12T15:53:44.873Z,36.84
2018-09-12T15:56:13.402Z,36.68
2018-09-12T15:58:41.934Z,37.25
2018-09-12T16:01:10.448Z,37.41
2018-09-12T16:03:38.970Z,37.32
2018-09-12T16:06:08.021Z,37.57
2018-09-12T16:08:36.568Z,37.15
2018-09-12T16:11:05.150Z,37.59
2018-09-12T16:13:33.619Z,38.21
2018-09-12T16:16:02.138Z,38.20
2018-09-12T16:18:30.648Z,37.94
2018-09-12T16:20:59.720Z,38.20
2018-09-12T16:23:28.299Z,38.61
2018-09-12T16:25:59.173Z,37.96
2018-09-12T16:28:27.716Z,38.06
2018-09-12T16:30:56.225Z,39.15
2018-09-12T16:33:24.783Z,38.86
2018-09-12T16:35:53.295Z,39.27
2018-09-12T16:38:21.822Z,39.34
2018-09-12T16:40:50.866Z,39.14
2018-09-12T16:43:19.397Z,39.41
2018-09-12T16:45:48.534Z,39.24
2018-09-12T16:48:17.092Z,39.94
2018-09-12T16:50:45.630Z,39.99
2018-09-12T16:53:14.138Z,40.24
2018-09-12T16:55:42.664Z,40.46
2018-09-12T16:58:12.100Z,40.34
2018-09-12T17:00:40.560Z,41.42
2018-09-12T17:03:09.133Z,41.20
2018-09-12T17:05:38.226Z,41.80
2018-09-12T17:08:07.493Z,42.15
2018-09-12T17:10:35.953Z,42.64
2018-09-12T17:13:04.482Z,42.42
2018-09-12T17:15:32.977Z,43.12
2018-09-12T17:18:02.036Z,43.72
2018-09-12T17:20:30.588Z,44.68
2018-09-12T17:22:59.121Z,45.04
2018-09-12T17:25:27.643Z,46.04
2018-09-12T17:27:57.138Z,46.11
2018-09-12T17:30:25.840Z,47.29
2018-09-12T17:32:54.329Z,48.10
2018-09-12T17:35:22.860Z,49.03
2018-09-12T17:37:51.538Z,49.01
2018-09-12T17:40:30.480Z,50.61
2018-09-12T17:42:59.901Z,50.92
2018-09-12T17:45:28.817Z,51.36
2018-09-12T17:47:57.416Z,51.06
2018-09-12T17:50:25.994Z,51.00
2018-09-12T17:52:54.571Z,51.96
2018-09-12T17:55:23.758Z,51.84
2018-09-12T17:57:52.223Z,52.28
2018-09-12T18:00:21.330Z,53.11
2018-09-12T18:02:49.794Z,53.24
2018-09-12T18:05:18.351Z,53.66
2018-09-12T18:07:46.860Z,54.68
2018-09-12T18:10:15.388Z,54.83
2018-09-12T18:12:44.372Z,55.36
2018-09-12T18:15:12.849Z,57.04
2018-09-12T18:17:41.494Z,57.40
2018-09-12T18:20:10.050Z,57.86
2018-09-12T18:22:38.528Z,58.52
2018-09-12T18:25:07.069Z,58.46
2018-09-12T18:27:35.684Z,59.15
2018-09-12T18:30:04.327Z,59.13
2018-09-12T18:32:35.832Z,59.33
2018-09-12T18:35:04.365Z,59.14
2018-09-12T18:37:32.843Z,59.25
2018-09-12T18:40:01.392Z,59.44
2018-09-12T18:42:29.942Z,59.71
2018-09-12T18:44:58.459Z,59.73
2018-09-12T18:47:26.991Z,60.74
2018-09-12T18:49:55.502Z,61.99
2018-09-12T18:52:24.059Z,61.67
2018-09-12T18:54:54.388Z,61.65
2018-09-12T18:57:23.137Z,61.59
2018-09-12T18:59:53.824Z,63.09
2018-09-12T19:02:22.345Z,65.30
2018-09-12T19:04:50.927Z,64.37
2018-09-12T19:07:19.525Z,64.02
2018-09-12T19:09:48.138Z,64.66
2018-09-12T19:12:16.630Z,64.99
2018-09-12T19:14:45.127Z,63.99
2018-09-12T19:17:13.700Z,64.09
2018-09-12T19:19:49.583Z,65.43
2018-09-12T19:22:18.157Z,65.46
2018-09-12T19:24:48.139Z,65.53
2018-09-12T19:27:16.737Z,65.02
2018-09-12T19:29:45.437Z,65.94
2018-09-12T19:32:13.992Z,65.97
2018-09-12T19:34:42.585Z,65.27
2018-09-12T19:37:11.102Z,66.32
2018-09-12T19:39:39.676Z,67.11
2018-09-12T19:42:08.219Z,67.30
2018-09-12T19:44:36.672Z,67.61
2018-09-12T19:47:05.191Z,68.13
2018-09-12T19:49:34.480Z,68.72
2018-09-12T19:52:03.152Z,68.78
2018-09-12T19:54:32.514Z,69.20
2018-09-12T19:57:01.168Z,69.86
2018-09-12T19:59:29.722Z,70.55
2018-09-12T20:01:58.582Z,70.24
2018-09-12T20:04:27.092Z,70.20
2018-09-12T20:06:55.805Z,70.19
2018-09-12T20:09:25.144Z,70.68
2018-09-12T20:11:53.758Z,70.93
2018-09-12T20:14:23.779Z,71.69
2018-09-12T20:16:52.318Z,71.99
2018-09-12T20:19:21.360Z,72.21
2018-09-12T20:21:50.746Z,72.28
2018-09-12T20:24:19.266Z,70.73
2018-09-12T20:26:47.869Z,71.69
2018-09-12T20:29:16.420Z,71.46
2018-09-12T20:31:45.021Z,71.42
2018-09-12T20:34:13.514Z,71.85
2018-09-12T20:36:43.384Z,72.01
2018-09-12T20:39:12.454Z,71.27
2018-09-12T20:41:40.984Z,71.22
2018-09-12T20:44:10.263Z,70.97
2018-09-12T20:46:38.855Z,71.78
2018-09-12T20:49:07.408Z,72.32
2018-09-12T20:51:36.074Z,72.20
2018-09-12T20:54:04.949Z,71.51
2018-09-12T20:56:33.512Z,71.42
2018-09-12T20:59:02.091Z,72.61
2018-09-12T21:01:30.617Z,71.58
2018-09-12T21:03:59.213Z,72.06
2018-09-12T21:06:27.769Z,72.89
2018-09-12T21:08:56.210Z,73.00
2018-09-12T21:11:24.695Z,72.50
2018-09-12T21:13:53.219Z,72.57
2018-09-12T21:16:21.743Z,72.21
2018-09-12T21:18:51.539Z,72.66
2018-09-12T21:21:20.912Z,72.81
2018-09-12T21:23:50.675Z,73.17
2018-09-12T21:26:19.216Z,74.41
2018-09-12T21:28:47.810Z,73.90
2018-09-12T21:31:16.397Z,74.19
2018-09-12T21:33:45.013Z,74.11
2018-09-12T21:36:13.851Z,74.71
2018-09-12T21:38:43.309Z,74.71
2018-09-12T21:41:11.897Z,75.21
2018-09-12T21:43:40.529Z,75.79
2018-09-12T21:46:09.152Z,75.83
2018-09-12T21:48:38.352Z,75.70
2018-09-12T21:51:07.038Z,75.87
2018-09-12T21:53:35.532Z,75.92
2018-09-12T21:56:05.159Z,75.63
2018-09-12T21:58:33.767Z,75.62
2018-09-12T22:01:02.458Z,75.79
2018-09-12T22:03:31.073Z,75.58
2018-09-12T22:05:59.663Z,76.15
2018-09-12T22:08:28.221Z,75.42
2018-09-12T22:10:56.831Z,75.94
2018-09-12T22:13:25.455Z,76.47
2018-09-12T22:15:54.747Z,76.15
2018-09-12T22:18:23.290Z,75.56
2018-09-12T22:20:51.840Z,76.32
2018-09-12T22:23:20.461Z,75.43
2018-09-12T22:25:49.016Z,76.70
2018-09-12T22:28:17.678Z,76.29
2018-09-12T22:30:46.287Z,76.77
2018-09-12T22:33:14.932Z,76.59
2018-09-12T22:35:44.193Z,77.16
2018-09-12T22:38:12.813Z,76.85
2018-09-12T22:40:41.334Z,77.19
2018-09-12T22:43:09.925Z,77.91
2018-09-12T22:45:38.510Z,78.02
2018-09-12T22:48:07.126Z,77.92
2018-09-12T22:50:35.636Z,78.44
2018-09-12T22:53:04.154Z,78.28
2018-09-12T22:55:32.833Z,78.46
2018-09-12T22:58:01.501Z,78.55
2018-09-12T23:00:30.407Z,77.97
2018-09-12T23:02:58.964Z,79.68
2018-09-12T23:05:27.579Z,79.18
2018-09-12T23:07:56.128Z,79.99
2018-09-12T23:10:24.579Z,80.61
2018-09-12T23:12:53.776Z,80.43
2018-09-12T23:15:22.238Z,81.21
2018-09-12T23:17:50.831Z,81.37
2018-09-12T23:20:19.387Z,80.99
2018-09-12T23:22:49.040Z,80.66
2018-09-12T23:25:17.600Z,81.11
2018-09-12T23:27:46.139Z,80.48
2018-09-12T23:30:14.757Z,80.83
2018-09-12T23:32:43.246Z,80.79
2018-09-12T23:35:11.695Z,80.95
2018-09-12T23:37:40.184Z,81.63
2018-09-12T23:40:08.685Z,81.38
2018-09-12T23:42:37.196Z,81.77
2018-09-12T23:45:06.851Z,81.61
2018-09-12T23:47:35.393Z,81.86
2018-09-12T23:50:03.843Z,82.76
2018-09-12T23:52:32.309Z,82.59
2018-09-12T23:55:01.430Z,83.55
2018-09-12T23:57:29.894Z,83.48
2018-09-12T23:59:58.529Z,83.96
